Time;durP1;ratioP1;P1;durP2;ratioP2;P2;SDS_P1;SDS_P2;PMS_P1;PMS_P2;Temp;Humidity;BMP_temperature;BMP_pressure;BME280_temperature;BME280_humidity;BME280_pressure;Samples;Min_cycle;Max_cycle;Signal;HPM_P1;HPM_P2
2023/12/03 00:00:33;;;;;;;;;;;;;;;-144.99;100.00;52645.81;5024298;28;19929;-65
2023/12/03 00:03:00;;;;;;;;;;;;;;;-144.99;100.00;52682.50;5025129;28;19933;-66
2023/12/03 00:05:26;;;;;;;;;;;;;;;-144.99;100.00;52684.53;5025700;28;20445;-66
2023/12/03 00:07:54;;;;;;;;;;;;;;;-144.99;100.00;52639.69;5020840;28;19961;-68
2023/12/03 00:10:21;;;;;;;;;;;;;;;-144.99;100.00;52598.94;5019889;28;19972;-66
2023/12/03 00:12:47;;;;;;;;;;;;;;;-144.99;100.00;52658.03;5025761;28;19968;-66
2023/12/03 00:15:14;;;;;;;;;;;;;;;-144.99;100.00;52660.09;5024264;28;19925;-65
2023/12/03 00:17:40;;;;;;;;;;;;;;;-144.99;100.00;52647.84;5025046;28;20251;-65
2023/12/03 00:20:08;;;;;;;;;;;;;;;-144.99;100.00;52680.47;5018832;28;19951;-65
2023/12/03 00:22:34;;;;;;;;;;;;;;;-144.99;100.00;52643.78;5041555;28;20256;-74
2023/12/03 00:25:02;;;;;;;;;;;;;;;-144.99;100.00;52684.53;5038742;28;20343;-72
2023/12/03 00:27:29;;;;;;;;;;;;;;;-144.99;100.00;52623.38;5030986;28;19925;-73
2023/12/03 00:29:55;;;;;;;;;;;;;;;-144.99;100.00;52643.78;5039654;28;19974;-72
2023/12/03 00:32:22;;;;;;;;;;;;;;;-144.99;100.00;52643.78;5038278;28;19983;-73
2023/12/03 00:34:48;;;;;;;;;;;;;;;-144.99;100.00;52613.19;5035102;28;20387;-73
2023/12/03 00:37:15;;;;;;;;;;;;;;;-144.99;100.00;52651.94;5029339;28;19976;-68
2023/12/03 00:39:41;;;;;;;;;;;;;;;-144.99;100.00;52688.63;5023526;28;19925;-66
2023/12/03 00:42:09;;;;;;;;;;;;;;;-144.99;100.00;52668.22;5021959;28;19991;-68
2023/12/03 00:44:36;;;;;;;;;;;;;;;-144.99;100.00;52651.94;5027455;28;19932;-68
2023/12/03 00:47:02;;;;;;;;;;;;;;;-144.99;100.00;52666.19;5015626;28;19925;-68
2023/12/03 00:49:29;;;;;;;;;;;;;;;-144.99;100.00;52658.03;5023934;28;19929;-68
2023/12/03 00:51:56;;;;;;;;;;;;;;;-144.99;100.00;52645.81;5021144;28;19929;-68
2023/12/03 00:54:22;;;;;;;;;;;;;;;-144.99;100.00;52664.16;5017214;28;19933;-68
2023/12/03 00:56:49;;;;;;;;;;;;;;;-144.99;100.00;52682.50;5008376;28;19968;-68
2023/12/03 00:59:17;;;;;;;;;;;;;;;-144.99;100.00;52641.72;5025265;28;19929;-68
2023/12/03 01:01:43;;;;;;;;;;;;;;;-144.99;100.00;52621.34;5018776;28;20358;-68
2023/12/03 01:04:10;;;;;;;;;;;;;;;-144.99;100.00;52649.88;5025717;28;19929;-68
2023/12/03 01:06:36;;;;;;;;;;;;;;;-144.99;100.00;52680.47;5019744;28;19960;-69
2023/12/03 01:09:03;;;;;;;;;;;;;;;-144.99;100.00;52656.00;5023095;28;19926;-70
2023/12/03 01:11:29;;;;;;;;;;;;;;;-144.99;100.00;52672.31;4677581;28;10000263;-70
2023/12/03 01:13:56;;;;;;;;;;;;;;;-144.99;100.00;52651.94;5017019;28;19930;-69
2023/12/03 01:16:24;;;;;;;;;;;;;;;-144.99;100.00;52676.38;5018424;28;19999;-69
2023/12/03 01:18:50;;;;;;;;;;;;;;;-144.99;100.00;52627.47;5020860;28;19929;-69
2023/12/03 01:21:17;;;;;;;;;;;;;;;-144.99;100.00;52660.09;5016236;28;20067;-68
2023/12/03 01:23:43;;;;;;;;;;;;;;;-144.99;100.00;52641.72;5050077;22;19973;-70
2023/12/03 01:26:10;;;;;;;;;;;;;;;-144.99;100.00;52623.38;5056576;28;19926;-68
2023/12/03 01:28:36;;;;;;;;;;;;;;;-144.99;100.00;52666.19;5052917;28;19925;-70
2023/12/03 01:31:03;;;;;;;;;;;;;;;-144.99;100.00;52635.63;5046843;28;20307;-70
2023/12/03 01:33:31;;;;;;;;;;;;;;;-144.99;100.00;52692.69;5050709;28;20345;-72
2023/12/03 01:35:57;;;;;;;;;;;;;;;-144.99;100.00;52641.72;5047821;28;19935;-72
2023/12/03 01:38:24;;;;;;;;;;;;;;;-144.99;100.00;52639.69;5051301;28;19925;-72
2023/12/03 01:40:53;;;;;;;;;;;;;;;-144.99;100.00;52688.63;5047148;28;20345;-66
2023/12/03 01:43:20;;;;;;;;;;;;;;;-144.99;100.00;52656.00;5048034;28;19971;-65
2023/12/03 01:45:46;;;;;;;;;;;;;;;-144.99;100.00;52672.31;5037380;28;19928;-65
2023/12/03 01:48:13;;;;;;;;;;;;;;;-144.99;100.00;52627.47;5045486;28;19972;-65
2023/12/03 01:50:41;;;;;;;;;;;;;;;-144.99;100.00;52668.22;5053834;28;20048;-64
2023/12/03 01:53:08;;;;;;;;;;;;;;;-144.99;100.00;52651.94;5046993;28;19925;-64
2023/12/03 01:55:35;;;;;;;;;;;;;;;-144.99;100.00;52656.00;5052706;28;19937;-65
2023/12/03 01:58:02;;;;;;;;;;;;;;;-144.99;100.00;52645.81;5047455;28;19968;-64
2023/12/03 02:00:28;;;;;;;;;;;;;;;-144.99;100.00;52629.50;5046297;28;19925;-66
2023/12/03 02:02:55;;;;;;;;;;;;;;;-144.99;100.00;52641.72;5040090;28;20464;-66
2023/12/03 02:05:21;;;;;;;;;;;;;;;-144.99;100.00;52623.38;5044822;28;19924;-65
2023/12/03 02:07:49;;;;;;;;;;;;;;;-144.99;100.00;52639.69;5046324;28;19936;-65
2023/12/03 02:10:16;;;;;;;;;;;;;;;-144.99;100.00;52678.44;5054748;28;20365;-65
2023/12/03 02:12:42;;;;;;;;;;;;;;;-144.99;100.00;52647.84;5047965;28;19924;-73
2023/12/03 02:15:09;;;;;;;;;;;;;;;-144.99;100.00;52643.78;5052880;28;19974;-65
2023/12/03 02:17:36;;;;;;;;;;;;;;;-144.99;100.00;52619.31;5059314;28;19928;-65
2023/12/03 02:20:03;;;;;;;;;;;;;;;-144.99;100.00;52635.63;5074031;28;19982;-65
2023/12/03 02:22:30;;;;;;;;;;;;;;;-144.99;100.00;52598.94;5063412;28;19916;-65
2023/12/03 02:24:58;;;;;;;;;;;;;;;-144.99;100.00;52676.38;5071137;28;19970;-67
2023/12/03 02:27:24;;;;;;;;;;;;;;;-144.99;100.00;52639.69;5070991;28;19925;-69
2023/12/03 02:29:51;;;;;;;;;;;;;;;-144.99;100.00;52688.63;5075037;28;19913;-69
2023/12/03 02:32:17;;;;;;;;;;;;;;;-144.99;100.00;52664.16;5073468;28;19925;-68
2023/12/03 02:34:44;;;;;;;;;;;;;;;-144.99;100.00;52696.78;5059796;28;19933;-67
2023/12/03 02:37:10;;;;;;;;;;;;;;;-144.99;100.00;52721.22;5053316;28;19925;-67
2023/12/03 02:39:37;;;;;;;;;;;;;;;-144.99;100.00;52653.97;5054049;28;20287;-67
2023/12/03 02:42:05;;;;;;;;;;;;;;;-144.99;100.00;52651.94;5045747;28;20456;-68
2023/12/03 02:44:31;;;;;;;;;;;;;;;-144.99;100.00;52656.00;5050985;28;19979;-67
2023/12/03 02:46:58;;;;;;;;;;;;;;;-144.99;100.00;52643.78;5051791;28;19928;-65
2023/12/03 02:49:24;;;;;;;;;;;;;;;-144.99;100.00;52627.47;5045532;28;19979;-71
2023/12/03 02:51:51;;;;;;;;;;;;;;;-144.99;100.00;52651.94;5047154;28;19928;-69
2023/12/03 02:54:17;;;;;;;;;;;;;;;-144.99;100.00;52668.22;5051505;28;19964;-67
2023/12/03 02:56:45;;;;;;;;;;;;;;;-144.99;100.00;52627.47;5052634;28;19950;-69
2023/12/03 02:59:13;;;;;;;;;;;;;;;-144.99;100.00;52639.69;5047485;28;20035;-69
2023/12/03 03:01:40;;;;;;;;;;;;;;;-144.99;100.00;52651.94;5049345;28;19924;-73
2023/12/03 03:04:06;;;;;;;;;;;;;;;-144.99;100.00;52643.78;5046253;28;19969;-69
2023/12/03 03:06:33;;;;;;;;;;;;;;;-144.99;100.00;52643.78;5048628;28;19994;-72
2023/12/03 03:08:59;;;;;;;;;;;;;;;-144.99;100.00;52627.47;5044540;28;19990;-69
2023/12/03 03:11:25;;;;;;;;;;;;;;;-144.99;100.00;52668.22;5046554;28;19982;-68
2023/12/03 03:13:52;;;;;;;;;;;;;;;-144.99;100.00;52682.50;5046377;28;19930;-71
2023/12/03 03:16:24;;;;;;;;;;;;;;;-144.99;100.00;52647.84;5053032;28;20301;-69
2023/12/03 03:18:50;;;;;;;;;;;;;;;-144.99;100.00;52643.78;5039260;28;19991;-69
2023/12/03 03:21:17;;;;;;;;;;;;;;;-144.99;100.00;52643.78;5037801;28;19975;-69
2023/12/03 03:23:43;;;;;;;;;;;;;;;-144.99;100.00;52633.59;5040434;28;20379;-70
2023/12/03 03:26:10;;;;;;;;;;;;;;;-144.99;100.00;52643.78;5035772;28;19971;-70
2023/12/03 03:28:36;;;;;;;;;;;;;;;-144.99;100.00;52645.81;5044084;28;19956;-71
2023/12/03 03:31:03;;;;;;;;;;;;;;;-144.99;100.00;52662.13;5039873;28;19929;-70
2023/12/03 03:33:31;;;;;;;;;;;;;;;-144.99;100.00;52656.00;5044722;28;19933;-71
2023/12/03 03:35:57;;;;;;;;;;;;;;;-144.99;100.00;52617.28;5041164;28;19983;-69
2023/12/03 03:38:24;;;;;;;;;;;;;;;-144.99;100.00;52590.78;5046137;28;19932;-70
2023/12/03 03:40:50;;;;;;;;;;;;;;;-144.99;100.00;52641.72;5039169;28;20002;-69
2023/12/03 03:43:17;;;;;;;;;;;;;;;-144.99;100.00;52658.03;5038619;28;19975;-67
2023/12/03 03:45:43;;;;;;;;;;;;;;;-144.99;100.00;52651.94;5047674;28;19972;-69
2023/12/03 03:48:10;;;;;;;;;;;;;;;-144.99;100.00;52639.69;5045741;28;19925;-68
2023/12/03 03:50:38;;;;;;;;;;;;;;;-144.99;100.00;52635.63;5052642;28;19932;-68
2023/12/03 03:53:04;;;;;;;;;;;;;;;-144.99;100.00;52660.09;5052743;28;19925;-68
2023/12/03 03:55:31;;;;;;;;;;;;;;;-144.99;100.00;52656.00;5041954;28;19928;-68
2023/12/03 03:57:57;;;;;;;;;;;;;;;-144.99;100.00;52647.84;5043307;28;19936;-67
2023/12/03 04:00:24;;;;;;;;;;;;;;;-144.99;100.00;52643.78;5040635;28;19929;-71
2023/12/03 04:02:51;;;;;;;;;;;;;;;-144.99;100.00;52605.03;5060979;28;19928;-69
2023/12/03 04:05:18;;;;;;;;;;;;;;;-144.99;100.00;52637.66;5050024;28;20027;-66
2023/12/03 04:07:46;;;;;;;;;;;;;;;-144.99;100.00;52668.22;5038575;28;19925;-68
2023/12/03 04:10:13;;;;;;;;;;;;;;;-144.99;100.00;52660.09;5050242;28;20367;-68
2023/12/03 04:12:40;;;;;;;;;;;;;;;-144.99;100.00;52668.22;5043811;28;19924;-68
2023/12/03 04:15:07;;;;;;;;;;;;;;;-144.99;100.00;52631.53;5052034;28;19925;-69
2023/12/03 04:17:34;;;;;;;;;;;;;;;-144.99;100.00;52625.44;5048703;28;19925;-68
2023/12/03 04:20:00;;;;;;;;;;;;;;;-144.99;100.00;52684.53;5051802;28;19936;-68
2023/12/03 04:22:27;;;;;;;;;;;;;;;-144.99;100.00;52635.63;5046415;28;19994;-70
2023/12/03 04:24:55;;;;;;;;;;;;;;;-144.99;100.00;52629.50;5049988;28;19929;-68
2023/12/03 04:27:21;;;;;;;;;;;;;;;-144.99;100.00;52631.53;5041631;28;19929;-68
2023/12/03 04:29:48;;;;;;;;;;;;;;;-144.99;100.00;52619.31;5041090;28;20436;-67
2023/12/03 04:32:15;;;;;;;;;;;;;;;-144.99;100.00;52676.38;5044081;28;19925;-68
2023/12/03 04:34:41;;;;;;;;;;;;;;;-144.99;100.00;52645.81;5046245;28;19931;-68
2023/12/03 04:37:08;;;;;;;;;;;;;;;-144.99;100.00;52680.47;5043370;28;19929;-68
2023/12/03 04:39:35;;;;;;;;;;;;;;;-144.99;100.00;52639.69;5046541;28;20386;-68
2023/12/03 04:42:03;;;;;;;;;;;;;;;-144.99;100.00;52635.63;5051385;28;20402;-67
2023/12/03 04:44:31;;;;;;;;;;;;;;;-144.99;100.00;52643.78;5045300;28;19994;-67
2023/12/03 04:46:58;;;;;;;;;;;;;;;-144.99;100.00;52639.69;5057090;28;19968;-65
2023/12/03 04:49:25;;;;;;;;;;;;;;;-144.99;100.00;52656.00;5052783;28;19933;-66
2023/12/03 04:51:51;;;;;;;;;;;;;;;-144.99;100.00;52664.16;5056270;28;19933;-65
2023/12/03 04:54:18;;;;;;;;;;;;;;;-144.99;100.00;52678.44;5071454;28;19923;-65
2023/12/03 04:56:44;;;;;;;;;;;;;;;-144.99;100.00;52658.03;5069321;28;19913;-66
2023/12/03 04:59:12;;;;;;;;;;;;;;;-144.99;100.00;52660.09;5069753;28;19937;-71
2023/12/03 05:01:39;;;;;;;;;;;;;;;-144.99;100.00;52639.69;5064584;28;20272;-68
2023/12/03 05:04:06;;;;;;;;;;;;;;;-144.99;100.00;52672.31;5060427;28;19948;-68
2023/12/03 05:06:32;;;;;;;;;;;;;;;-144.99;100.00;52639.69;5066774;28;19925;-70
2023/12/03 05:08:59;;;;;;;;;;;;;;;-144.99;100.00;52684.53;5054565;28;19929;-70
2023/12/03 05:11:25;;;;;;;;;;;;;;;-144.99;100.00;52637.66;5043175;28;19971;-66
2023/12/03 05:13:52;;;;;;;;;;;;;;;-144.99;100.00;52631.53;5051030;28;20386;-65
2023/12/03 05:16:19;;;;;;;;;;;;;;;-144.99;100.00;52639.69;5050694;28;19978;-65
2023/12/03 05:18:46;;;;;;;;;;;;;;;-144.99;100.00;52605.03;5039753;28;19932;-66
2023/12/03 05:21:12;;;;;;;;;;;;;;;-144.99;100.00;52668.22;5044295;28;19971;-65
2023/12/03 05:23:39;;;;;;;;;;;;;;;-144.99;100.00;52635.63;5062910;28;19936;-68
2023/12/03 05:26:06;;;;;;;;;;;;;;;-144.99;100.00;52680.47;5064434;28;19925;-67
2023/12/03 05:28:32;;;;;;;;;;;;;;;-144.99;100.00;52639.69;5064014;28;19925;-69
2023/12/03 05:30:59;;;;;;;;;;;;;;;-144.99;100.00;52586.69;5062752;28;19986;-68
2023/12/03 05:33:26;;;;;;;;;;;;;;;-144.99;100.00;52658.03;5065702;28;19929;-68
2023/12/03 05:35:53;;;;;;;;;;;;;;;-144.99;100.00;52631.53;5059428;28;20467;-68
2023/12/03 05:38:19;;;;;;;;;;;;;;;-144.99;100.00;52678.44;5055017;28;19979;-67
2023/12/03 05:40:46;;;;;;;;;;;;;;;-144.99;100.00;52656.00;5049362;28;19976;-68
2023/12/03 05:43:13;;;;;;;;;;;;;;;-144.99;100.00;52643.78;5048722;28;19970;-68
2023/12/03 05:45:39;;;;;;;;;;;;;;;-144.99;100.00;52647.84;5046395;28;19925;-68
2023/12/03 05:48:06;;;;;;;;;;;;;;;-144.99;100.00;52643.78;5051007;28;19924;-68
2023/12/03 05:50:34;;;;;;;;;;;;;;;-144.99;100.00;52668.22;5054535;28;19924;-68
2023/12/03 05:53:01;;;;;;;;;;;;;;;-144.99;100.00;52684.53;5046709;28;19932;-66
2023/12/03 05:55:27;;;;;;;;;;;;;;;-144.99;100.00;52676.38;5053659;28;19980;-66
2023/12/03 05:57:54;;;;;;;;;;;;;;;-144.99;100.00;52623.38;5047314;28;19964;-66
2023/12/03 06:00:20;;;;;;;;;;;;;;;-144.99;100.00;52653.97;5067808;28;19932;-66
2023/12/03 06:02:47;;;;;;;;;;;;;;;-144.99;100.00;52615.25;5055676;28;19929;-66
2023/12/03 06:05:13;;;;;;;;;;;;;;;-144.99;100.00;52676.38;5049905;28;19924;-65
2023/12/03 06:07:41;;;;;;;;;;;;;;;-144.99;100.00;52676.38;5053623;28;20374;-68
2023/12/03 06:10:08;;;;;;;;;;;;;;;-144.99;100.00;52664.16;5054107;28;19990;-69
2023/12/03 06:12:35;;;;;;;;;;;;;;;-144.99;100.00;52664.16;5049441;28;19928;-69
2023/12/03 06:15:03;;;;;;;;;;;;;;;-144.99;100.00;52704.94;5053921;28;19929;-69
2023/12/03 06:17:29;;;;;;;;;;;;;;;-144.99;100.00;52676.38;5040321;28;20471;-69
2023/12/03 06:19:56;;;;;;;;;;;;;;;-144.99;100.00;52658.03;5051619;28;19982;-68
2023/12/03 06:22:22;;;;;;;;;;;;;;;-144.99;100.00;52668.22;5045774;28;20007;-69
2023/12/03 06:24:50;;;;;;;;;;;;;;;-144.99;100.00;52680.47;5057076;28;19978;-70
2023/12/03 06:27:17;;;;;;;;;;;;;;;-144.99;100.00;52639.69;5052496;28;19939;-67
2023/12/03 06:29:43;;;;;;;;;;;;;;;-144.99;100.00;52647.84;5053332;28;19924;-67
2023/12/03 06:32:10;;;;;;;;;;;;;;;-144.99;100.00;52711.03;5044981;28;19929;-68
2023/12/03 06:34:37;;;;;;;;;;;;;;;-144.99;100.00;52660.09;5049802;28;19929;-68
2023/12/03 06:37:04;;;;;;;;;;;;;;;-144.99;100.00;52637.66;5052777;28;19925;-68
2023/12/03 06:39:31;;;;;;;;;;;;;;;-144.99;100.00;52666.19;5051340;28;19959;-68
2023/12/03 06:41:59;;;;;;;;;;;;;;;-144.99;100.00;52647.84;5052827;28;19936;-67
2023/12/03 06:44:25;;;;;;;;;;;;;;;-144.99;100.00;52686.59;5046379;28;19925;-68
2023/12/03 06:46:52;;;;;;;;;;;;;;;-144.99;100.00;52637.66;5052751;28;19980;-70
2023/12/03 06:49:18;;;;;;;;;;;;;;;-144.99;100.00;52672.31;5046247;28;19929;-70
2023/12/03 06:51:45;;;;;;;;;;;;;;;-144.99;100.00;52643.78;5043968;28;19932;-69
2023/12/03 06:54:12;;;;;;;;;;;;;;;-144.99;100.00;52651.94;5052176;28;19928;-71
2023/12/03 06:56:38;;;;;;;;;;;;;;;-144.99;100.00;52680.47;5067371;28;19925;-69
2023/12/03 06:59:06;;;;;;;;;;;;;;;-144.99;100.00;52656.00;5041647;28;19925;-69
2023/12/03 07:01:33;;;;;;;;;;;;;;;-144.99;100.00;52668.22;5048850;28;20039;-70
2023/12/03 07:03:59;;;;;;;;;;;;;;;-144.99;100.00;52639.69;5050344;28;20442;-69
2023/12/03 07:06:26;;;;;;;;;;;;;;;-144.99;100.00;52660.09;5047343;28;20304;-69
2023/12/03 07:08:52;;;;;;;;;;;;;;;-144.99;100.00;52668.22;5051197;28;20383;-70
2023/12/03 07:11:19;;;;;;;;;;;;;;;-144.99;100.00;52631.53;5049141;28;19978;-71
2023/12/03 07:13:45;;;;;;;;;;;;;;;-144.99;100.00;52635.63;5037053;28;19936;-69
2023/12/03 07:16:13;;;;;;;;;;;;;;;-144.99;100.00;52635.63;5041492;28;19964;-69
2023/12/03 07:18:41;;;;;;;;;;;;;;;-144.99;100.00;52647.84;5052658;28;19952;-72
2023/12/03 07:21:08;;;;;;;;;;;;;;;-144.99;100.00;52647.84;5069749;28;19924;-76
2023/12/03 07:23:35;;;;;;;;;;;;;;;-144.99;100.00;52639.69;5068258;28;19925;-75
2023/12/03 07:26:01;;;;;;;;;;;;;;;-144.99;100.00;52639.69;5065755;28;19933;-73
2023/12/03 07:28:28;;;;;;;;;;;;;;;-144.99;100.00;52635.63;5043699;28;19924;-73
2023/12/03 07:30:54;;;;;;;;;;;;;;;-144.99;100.00;52676.38;5047110;28;19928;-75
2023/12/03 07:33:22;;;;;;;;;;;;;;;-144.99;100.00;52633.59;5054344;28;20005;-73
2023/12/03 07:35:49;;;;;;;;;;;;;;;-144.99;100.00;52651.94;5053973;28;19932;-71
2023/12/03 07:38:16;;;;;;;;;;;;;;;-144.99;100.00;52643.78;5045207;28;19983;-74
2023/12/03 07:40:42;;;;;;;;;;;;;;;-144.99;100.00;52627.47;5045897;28;19974;-71
2023/12/03 07:43:09;;;;;;;;;;;;;;;-144.99;100.00;52631.53;5048271;28;19925;-72
2023/12/03 07:45:36;;;;;;;;;;;;;;;-144.99;100.00;52627.47;5043669;28;20122;-72
2023/12/03 07:48:02;;;;;;;;;;;;;;;-144.99;100.00;52658.03;5052274;28;19979;-64
2023/12/03 07:50:30;;;;;;;;;;;;;;;-144.99;100.00;52647.84;5049645;28;20084;-64
2023/12/03 07:52:58;;;;;;;;;;;;;;;-144.99;100.00;52676.38;5044648;28;19929;-63
2023/12/03 07:55:25;;;;;;;;;;;;;;;-144.99;100.00;52643.78;5058426;28;19967;-64
2023/12/03 07:57:51;;;;;;;;;;;;;;;-144.99;100.00;52676.38;5066366;28;19983;-65
2023/12/03 08:00:18;;;;;;;;;;;;;;;-144.99;100.00;52643.78;5062369;28;19925;-65
2023/12/03 08:02:45;;;;;;;;;;;;;;;-144.99;100.00;52680.47;5060241;28;19925;-71
2023/12/03 08:05:11;;;;;;;;;;;;;;;-144.99;100.00;52627.47;5049470;28;20205;-71
2023/12/03 08:07:39;;;;;;;;;;;;;;;-144.99;100.00;52647.84;5053058;28;20398;-70
2023/12/03 08:10:06;;;;;;;;;;;;;;;-144.99;100.00;52631.53;5043321;28;19925;-70
2023/12/03 08:12:33;;;;;;;;;;;;;;;-144.99;100.00;52666.19;5052582;28;19933;-72
2023/12/03 08:15:00;;;;;;;;;;;;;;;-144.99;100.00;52637.66;5049814;28;20375;-70
2023/12/03 08:17:26;;;;;;;;;;;;;;;-144.99;100.00;52643.78;5052061;28;19925;-70
2023/12/03 08:19:53;;;;;;;;;;;;;;;-144.99;100.00;52656.00;5050740;28;20408;-70
2023/12/03 08:22:20;;;;;;;;;;;;;;;-144.99;100.00;52684.53;5046765;28;19925;-69
2023/12/03 08:24:47;;;;;;;;;;;;;;;-144.99;100.00;52692.69;5049045;28;19944;-70
2023/12/03 08:27:14;;;;;;;;;;;;;;;-144.99;100.00;52635.63;5053379;28;19929;-71
2023/12/03 08:29:41;;;;;;;;;;;;;;;-144.99;100.00;52643.78;5055802;28;19933;-70
2023/12/03 08:32:08;;;;;;;;;;;;;;;-144.99;100.00;52651.94;5049733;28;19925;-72
2023/12/03 08:34:34;;;;;;;;;;;;;;;-144.99;100.00;52656.00;5051447;28;19944;-70
2023/12/03 08:37:01;;;;;;;;;;;;;;;-144.99;100.00;52631.53;5050831;28;19929;-72
2023/12/03 08:39:27;;;;;;;;;;;;;;;-144.99;100.00;52623.38;5046952;28;19929;-72
2023/12/03 08:41:55;;;;;;;;;;;;;;;-144.99;100.00;52668.22;5071312;28;20003;-70
2023/12/03 08:44:22;;;;;;;;;;;;;;;-144.99;100.00;52625.44;5055181;28;19933;-70
2023/12/03 08:46:48;;;;;;;;;;;;;;;-144.99;100.00;52627.47;5052138;28;19931;-70
2023/12/03 08:49:15;;;;;;;;;;;;;;;-144.99;100.00;52635.63;5044841;28;19928;-70
2023/12/03 08:51:42;;;;;;;;;;;;;;;-144.99;100.00;52623.38;5045046;28;20382;-71
2023/12/03 08:54:08;;;;;;;;;;;;;;;-144.99;100.00;52668.22;5036139;28;19932;-70
2023/12/03 08:56:35;;;;;;;;;;;;;;;-144.99;100.00;52633.59;5045707;28;19972;-74
2023/12/03 08:59:02;;;;;;;;;;;;;;;-144.99;100.00;52635.63;5045855;28;19925;-70
2023/12/03 09:01:30;;;;;;;;;;;;;;;-144.99;100.00;52651.94;5050539;28;19928;-72
2023/12/03 09:03:56;;;;;;;;;;;;;;;-144.99;100.00;52664.16;5052700;28;19982;-72
2023/12/03 09:06:23;;;;;;;;;;;;;;;-144.99;100.00;52635.63;5050262;28;20102;-74
2023/12/03 09:08:50;;;;;;;;;;;;;;;-144.99;100.00;52643.78;5047529;28;19936;-72
2023/12/03 09:11:16;;;;;;;;;;;;;;;-144.99;100.00;52598.94;5069501;28;19925;-73
2023/12/03 09:13:43;;;;;;;;;;;;;;;-144.99;100.00;52660.09;5071523;28;19932;-71
2023/12/03 09:16:11;;;;;;;;;;;;;;;-144.99;100.00;52641.72;5069882;28;19913;-71
2023/12/03 09:18:38;;;;;;;;;;;;;;;-144.99;100.00;52658.03;5055247;28;19979;-72
2023/12/03 09:21:06;;;;;;;;;;;;;;;-144.99;100.00;52631.53;5065432;28;19925;-72
2023/12/03 09:23:33;;;;;;;;;;;;;;;-144.99;100.00;52660.09;5066318;28;20011;-72
2023/12/03 09:26:00;;;;;;;;;;;;;;;-144.99;100.00;52666.19;5048770;28;19929;-71
2023/12/03 09:28:29;;;;;;;;;;;;;;;-144.99;100.00;52633.59;5048731;28;19976;-71
2023/12/03 09:30:56;;;;;;;;;;;;;;;-144.99;100.00;52623.38;5048707;28;19929;-71
2023/12/03 09:33:24;;;;;;;;;;;;;;;-144.99;100.00;52639.69;5047576;28;19983;-70
2023/12/03 09:35:51;;;;;;;;;;;;;;;-144.99;100.00;52700.84;5043070;28;19959;-71
2023/12/03 09:38:17;;;;;;;;;;;;;;;-144.99;100.00;52647.84;5044075;28;19925;-71
2023/12/03 09:40:44;;;;;;;;;;;;;;;-144.99;100.00;52676.38;5050174;28;19925;-71
2023/12/03 09:43:11;;;;;;;;;;;;;;;-144.99;100.00;52639.69;5054516;28;19924;-71
2023/12/03 09:45:38;;;;;;;;;;;;;;;-144.99;100.00;52700.84;5043880;28;19924;-72
2023/12/03 09:48:06;;;;;;;;;;;;;;;-144.99;100.00;52647.84;5048362;28;19930;-72
2023/12/03 09:50:35;;;;;;;;;;;;;;;-144.99;100.00;52656.00;5039300;28;19925;-71
2023/12/03 09:53:03;;;;;;;;;;;;;;;-144.99;100.00;52658.03;5034480;28;19925;-71
2023/12/03 09:55:32;;;;;;;;;;;;;;;-144.99;100.00;52656.00;5044555;28;19982;-70
2023/12/03 09:58:00;;;;;;;;;;;;;;;-144.99;100.00;52641.72;5043230;28;19964;-71
2023/12/03 10:00:28;;;;;;;;;;;;;;;-144.99;100.00;52641.72;5048659;28;20413;-71
2023/12/03 10:02:55;;;;;;;;;;;;;;;-144.99;100.00;52586.69;5059611;28;19951;-70
2023/12/03 10:05:22;;;;;;;;;;;;;;;-144.99;100.00;52656.00;5060417;28;20122;-71
2023/12/03 10:07:50;;;;;;;;;;;;;;;-144.99;100.00;52600.97;5046240;28;19968;-72
2023/12/03 10:10:18;;;;;;;;;;;;;;;-144.99;100.00;52688.63;5049375;28;19929;-72
2023/12/03 10:12:46;;;;;;;;;;;;;;;-144.99;100.00;52639.69;5051219;28;19978;-72
2023/12/03 10:15:13;;;;;;;;;;;;;;;-144.99;100.00;52647.84;5043736;28;20342;-71
2023/12/03 10:17:40;;;;;;;;;;;;;;;-144.99;100.00;52639.69;5042172;28;19929;-73
2023/12/03 10:20:22;;;;;;;;;;;;;;;-144.99;100.00;52629.50;5052779;28;19925;-72
2023/12/03 10:22:51;;;;;;;;;;;;;;;-144.99;100.00;52651.94;5039995;28;19971;-73
2023/12/03 10:25:31;;;;;;;;;;;;;;;-144.99;100.00;52639.69;5044828;28;19928;-75
2023/12/03 10:27:58;;;;;;;;;;;;;;;-144.99;100.00;52641.72;5053780;28;20393;-73
2023/12/03 10:30:24;;;;;;;;;;;;;;;-144.99;100.00;52647.84;5051153;28;20390;-74
2023/12/03 10:32:51;;;;;;;;;;;;;;;-144.99;100.00;52643.78;5046531;28;19926;-73
2023/12/03 10:35:19;;;;;;;;;;;;;;;-144.99;100.00;52623.38;5042129;28;19994;-73
2023/12/03 10:37:45;;;;;;;;;;;;;;;-144.99;100.00;52619.31;5055550;28;19947;-73
2023/12/03 10:40:14;;;;;;;;;;;;;;;-144.99;100.00;52647.84;5041894;28;19932;-73
2023/12/03 10:42:40;;;;;;;;;;;;;;;-144.99;100.00;52664.16;5045995;28;20452;-75
2023/12/03 10:45:08;;;;;;;;;;;;;;;-144.99;100.00;52639.69;5061830;28;19928;-75
2023/12/03 10:47:34;;;;;;;;;;;;;;;-144.99;100.00;52651.94;5070103;28;20335;-74
2023/12/03 10:50:01;;;;;;;;;;;;;;;-144.99;100.00;52660.09;5045875;28;19925;-74
2023/12/03 10:52:28;;;;;;;;;;;;;;;-144.99;100.00;52660.09;5047729;28;19995;-74
2023/12/03 10:54:55;;;;;;;;;;;;;;;-144.99;100.00;52660.09;5052509;28;19925;-74
2023/12/03 10:57:24;;;;;;;;;;;;;;;-144.99;100.00;52651.94;5050424;28;19975;-74
2023/12/03 10:59:53;;;;;;;;;;;;;;;-144.99;100.00;52627.47;5051599;28;19925;-73
2023/12/03 11:02:21;;;;;;;;;;;;;;;-144.99;100.00;52635.63;5056175;28;19925;-72
2023/12/03 11:04:50;;;;;;;;;;;;;;;-144.99;100.00;52649.88;5042200;28;20427;-73
2023/12/03 11:07:19;;;;;;;;;;;;;;;-144.99;100.00;52651.94;5046123;28;19936;-74
2023/12/03 11:09:46;;;;;;;;;;;;;;;-144.99;100.00;52623.38;5046487;28;19928;-75
2023/12/03 11:12:13;;;;;;;;;;;;;;;-144.99;100.00;52651.94;5043401;28;19947;-75
2023/12/03 11:14:41;;;;;;;;;;;;;;;-144.99;100.00;52619.31;5042901;28;19924;-73
2023/12/03 11:17:11;;;;;;;;;;;;;;;-144.99;100.00;52660.09;5046410;28;19986;-73
2023/12/03 11:19:40;;;;;;;;;;;;;;;-144.99;100.00;52664.16;5054898;28;19996;-72
2023/12/03 11:22:12;;;;;;;;;;;;;;;-144.99;100.00;52627.47;5047130;28;19987;-73
2023/12/03 11:24:46;;;;;;;;;;;;;;;-144.99;100.00;52631.53;5047539;28;19925;-75
2023/12/03 11:27:13;;;;;;;;;;;;;;;-144.99;100.00;52603.00;5070596;28;19971;-72
2023/12/03 11:29:50;;;;;;;;;;;;;;;-144.99;100.00;52660.09;5059036;28;19925;-74
2023/12/03 11:32:17;;;;;;;;;;;;;;;-144.99;100.00;52651.94;5066553;28;19925;-77
2023/12/03 11:34:44;;;;;;;;;;;;;;;-144.99;100.00;52631.53;5053292;28;19952;-74
2023/12/03 11:37:12;;;;;;;;;;;;;;;-144.99;100.00;52639.69;5062203;28;20785;-76
2023/12/03 11:39:38;;;;;;;;;;;;;;;-144.99;100.00;52625.44;5057584;28;19947;-74
2023/12/03 11:42:06;;;;;;;;;;;;;;;-144.99;100.00;52635.63;5059435;28;19928;-74
2023/12/03 11:44:33;;;;;;;;;;;;;;;-144.99;100.00;52617.28;5054938;28;20280;-74
2023/12/03 11:47:05;;;;;;;;;;;;;;;-144.99;100.00;52615.25;5046308;28;19929;-73
2023/12/03 11:49:34;;;;;;;;;;;;;;;-144.99;100.00;52619.31;5040035;28;21337;-73
2023/12/03 11:52:01;;;;;;;;;;;;;;;-144.99;100.00;52615.25;5041720;28;19975;-72
2023/12/03 11:54:29;;;;;;;;;;;;;;;-144.99;100.00;52643.78;5050183;28;19979;-75
2023/12/03 11:56:55;;;;;;;;;;;;;;;-144.99;100.00;52643.78;5042936;28;20406;-74
2023/12/03 11:59:22;;;;;;;;;;;;;;;-144.99;100.00;52607.09;5044978;28;19990;-74
2023/12/03 12:01:48;;;;;;;;;;;;;;;-144.99;100.00;52668.22;5060514;28;19960;-77
2023/12/03 12:04:22;;;;;;;;;;;;;;;-144.99;100.00;52611.16;5063043;28;20002;-74
2023/12/03 12:06:49;;;;;;;;;;;;;;;-144.99;100.00;52645.81;5072546;28;19992;-73
2023/12/03 12:09:21;;;;;;;;;;;;;;;-144.99;100.00;52651.94;5053135;28;19993;-73
2023/12/03 12:11:48;;;;;;;;;;;;;;;-144.99;100.00;52615.25;5042027;28;20399;-73
2023/12/03 12:14:14;;;;;;;;;;;;;;;-144.99;100.00;52635.63;5048381;28;19986;-74
2023/12/03 12:16:41;;;;;;;;;;;;;;;-144.99;100.00;52590.78;5046625;28;19931;-73